sensor_id;sensor_type;location;lat;lon;timestamp;pressure;altitude;pressure_sealevel;temperature;humidity
41573;BME280;27286;47.870;19.006;2022-07-29T13:57:55;99018.47;;;35.20;19.40
41573;BME280;27286;47.870;19.006;2022-07-29T14:00:20;99020.66;;;35.00;19.75
41573;BME280;27286;47.870;19.006;2022-07-29T14:02:46;99020.56;;;35.18;19.33
41573;BME280;27286;47.870;19.006;2022-07-29T14:05:11;99018.53;;;36.02;19.25
41573;BME280;27286;47.870;19.006;2022-07-29T14:07:38;99020.72;;;36.69;18.51
41573;BME280;27286;47.870;19.006;2022-07-29T14:10:06;99003.72;;;37.19;18.15
41573;BME280;27286;47.870;19.006;2022-07-29T14:12:32;99019.88;;;37.76;17.61
41573;BME280;27286;47.870;19.006;2022-07-29T14:14:57;99008.75;;;38.16;17.17
41573;BME280;27286;47.870;19.006;2022-07-29T14:17:23;99016.53;;;38.51;16.80
41573;BME280;27286;47.870;19.006;2022-07-29T14:19:48;99008.66;;;38.11;16.96
41573;BME280;27286;47.870;19.006;2022-07-29T14:22:14;99009.81;;;37.59;17.15
41573;BME280;27286;47.870;19.006;2022-07-29T14:24:40;99007.50;;;37.01;17.68
41573;BME280;27286;47.870;19.006;2022-07-29T14:27:06;99000.63;;;36.53;18.26
41573;BME280;27286;47.870;19.006;2022-07-29T14:29:32;99006.28;;;36.00;18.66
41573;BME280;27286;47.870;19.006;2022-07-29T14:31:57;99004.53;;;35.70;19.52
41573;BME280;27286;47.870;19.006;2022-07-29T14:34:23;99021.84;;;35.46;19.99
41573;BME280;27286;47.870;19.006;2022-07-29T14:36:49;99003.81;;;35.51;19.82
41573;BME280;27286;47.870;19.006;2022-07-29T14:39:14;99005.34;;;35.36;20.92
41573;BME280;27286;47.870;19.006;2022-07-29T14:41:41;98999.75;;;35.19;20.51
41573;BME280;27286;47.870;19.006;2022-07-29T14:44:06;98995.13;;;35.49;20.13
41573;BME280;27286;47.870;19.006;2022-07-29T14:46:32;98991.69;;;35.54;20.82
41573;BME280;27286;47.870;19.006;2022-07-29T14:48:57;98990.63;;;35.78;21.37
41573;BME280;27286;47.870;19.006;2022-07-29T14:51:23;98983.97;;;36.61;20.91
41573;BME280;27286;47.870;19.006;2022-07-29T14:53:48;98987.53;;;37.24;20.84
41573;BME280;27286;47.870;19.006;2022-07-29T14:56:14;98981.34;;;37.79;20.41
41573;BME280;27286;47.870;19.006;2022-07-29T14:58:39;98974.94;;;38.29;19.67
41573;BME280;27286;47.870;19.006;2022-07-29T15:01:05;98974.94;;;38.77;19.78
41573;BME280;27286;47.870;19.006;2022-07-29T15:03:31;98972.09;;;38.94;19.01
41573;BME280;27286;47.870;19.006;2022-07-29T15:05:56;98966.03;;;39.14;18.25
41573;BME280;27286;47.870;19.006;2022-07-29T15:08:22;98968.34;;;39.32;18.30
41573;BME280;27286;47.870;19.006;2022-07-29T15:10:48;98966.34;;;39.55;18.74
41573;BME280;27286;47.870;19.006;2022-07-29T15:13:13;98966.41;;;39.65;18.32
41573;BME280;27286;47.870;19.006;2022-07-29T15:15:39;98962.31;;;39.25;18.58
41573;BME280;27286;47.870;19.006;2022-07-29T15:18:04;98960.13;;;39.27;18.46
41573;BME280;27286;47.870;19.006;2022-07-29T15:20:30;98961.34;;;39.47;18.22
41573;BME280;27286;47.870;19.006;2022-07-29T15:22:55;98948.66;;;39.57;18.46
41573;BME280;27286;47.870;19.006;2022-07-29T15:25:22;98958.56;;;39.74;17.97
41573;BME280;27286;47.870;19.006;2022-07-29T15:27:48;98959.91;;;39.76;18.18
41573;BME280;27286;47.870;19.006;2022-07-29T15:30:13;98950.72;;;39.87;17.63
41573;BME280;27286;47.870;19.006;2022-07-29T15:32:44;98949.63;;;39.88;17.79
41573;BME280;27286;47.870;19.006;2022-07-29T15:35:10;98948.28;;;39.91;17.46
41573;BME280;27286;47.870;19.006;2022-07-29T15:37:39;98950.47;;;39.94;17.62
41573;BME280;27286;47.870;19.006;2022-07-29T15:40:06;98948.00;;;39.87;17.85
41573;BME280;27286;47.870;19.006;2022-07-29T15:42:31;98944.09;;;39.73;17.85
41573;BME280;27286;47.870;19.006;2022-07-29T15:44:57;98942.97;;;39.64;17.63
41573;BME280;27286;47.870;19.006;2022-07-29T15:47:22;98943.50;;;39.61;17.96
41573;BME280;27286;47.870;19.006;2022-07-29T15:49:48;98937.47;;;39.54;18.21
41573;BME280;27286;47.870;19.006;2022-07-29T15:52:18;98932.16;;;39.37;18.39
41573;BME280;27286;47.870;19.006;2022-07-29T15:54:44;98928.22;;;39.18;18.89
41573;BME280;27286;47.870;19.006;2022-07-29T15:57:10;98932.53;;;39.14;18.49
41573;BME280;27286;47.870;19.006;2022-07-29T15:59:35;98922.44;;;39.09;18.21
41573;BME280;27286;47.870;19.006;2022-07-29T16:02:00;98926.03;;;39.15;18.09
41573;BME280;27286;47.870;19.006;2022-07-29T16:04:26;98912.72;;;39.18;18.08
41573;BME280;27286;47.870;19.006;2022-07-29T16:06:52;98931.81;;;39.28;17.98
41573;BME280;27286;47.870;19.006;2022-07-29T16:09:17;98935.16;;;39.35;18.05
41573;BME280;27286;47.870;19.006;2022-07-29T16:11:43;98937.31;;;39.33;17.92
41573;BME280;27286;47.870;19.006;2022-07-29T16:14:10;98931.22;;;39.16;17.96
41573;BME280;27286;47.870;19.006;2022-07-29T16:16:37;98932.78;;;38.80;18.85
41573;BME280;27286;47.870;19.006;2022-07-29T16:19:03;98939.34;;;38.30;19.18
41573;BME280;27286;47.870;19.006;2022-07-29T16:21:30;98946.09;;;37.84;19.59
41573;BME280;27286;47.870;19.006;2022-07-29T16:23:56;98937.91;;;37.45;20.63
41573;BME280;27286;47.870;19.006;2022-07-29T16:26:22;98935.31;;;37.00;21.30
41573;BME280;27286;47.870;19.006;2022-07-29T16:28:48;98935.16;;;36.61;21.65
41573;BME280;27286;47.870;19.006;2022-07-29T16:31:13;98935.91;;;36.28;21.86
41573;BME280;27286;47.870;19.006;2022-07-29T16:33:39;98937.63;;;35.94;22.23
41573;BME280;27286;47.870;19.006;2022-07-29T16:36:04;98938.84;;;35.63;22.46
41573;BME280;27286;47.870;19.006;2022-07-29T16:38:30;98933.31;;;35.35;22.98
41573;BME280;27286;47.870;19.006;2022-07-29T16:40:55;98931.19;;;35.13;22.79
41573;BME280;27286;47.870;19.006;2022-07-29T16:43:22;98929.63;;;34.94;22.96
41573;BME280;27286;47.870;19.006;2022-07-29T16:45:48;98934.47;;;34.74;23.29
41573;BME280;27286;47.870;19.006;2022-07-29T16:48:13;98925.03;;;34.53;23.72
41573;BME280;27286;47.870;19.006;2022-07-29T16:50:39;98932.72;;;34.37;24.00
41573;BME280;27286;47.870;19.006;2022-07-29T16:53:05;98926.03;;;34.22;23.96
41573;BME280;27286;47.870;19.006;2022-07-29T16:55:30;98936.41;;;34.06;24.26
41573;BME280;27286;47.870;19.006;2022-07-29T16:57:56;98939.06;;;33.95;24.38
41573;BME280;27286;47.870;19.006;2022-07-29T17:00:22;98937.31;;;33.82;24.80
41573;BME280;27286;47.870;19.006;2022-07-29T17:02:48;98937.00;;;33.72;25.08
41573;BME280;27286;47.870;19.006;2022-07-29T17:05:14;98933.78;;;33.63;25.32
41573;BME280;27286;47.870;19.006;2022-07-29T17:07:40;98931.81;;;33.52;25.23
41573;BME280;27286;47.870;19.006;2022-07-29T17:10:07;98930.06;;;33.39;25.64
41573;BME280;27286;47.870;19.006;2022-07-29T17:12:38;98925.81;;;33.25;25.60
41573;BME280;27286;47.870;19.006;2022-07-29T17:15:07;98938.31;;;33.19;25.99
41573;BME280;27286;47.870;19.006;2022-07-29T17:17:33;98941.53;;;33.10;26.04
41573;BME280;27286;47.870;19.006;2022-07-29T17:19:58;98940.00;;;32.96;25.76
41573;BME280;27286;47.870;19.006;2022-07-29T17:22:23;98944.97;;;32.92;26.08
41573;BME280;27286;47.870;19.006;2022-07-29T17:24:49;98961.66;;;32.82;26.37
41573;BME280;27286;47.870;19.006;2022-07-29T17:27:15;98963.75;;;32.74;26.60
41573;BME280;27286;47.870;19.006;2022-07-29T17:29:40;98962.38;;;32.65;26.70
41573;BME280;27286;47.870;19.006;2022-07-29T17:32:07;98963.03;;;32.53;27.90
41573;BME280;27286;47.870;19.006;2022-07-29T17:34:37;98954.03;;;32.35;28.14
41573;BME280;27286;47.870;19.006;2022-07-29T17:37:04;98961.69;;;32.24;28.81
41573;BME280;27286;47.870;19.006;2022-07-29T17:39:29;98954.97;;;32.09;28.47
41573;BME280;27286;47.870;19.006;2022-07-29T17:41:55;98963.22;;;32.07;28.45
41573;BME280;27286;47.870;19.006;2022-07-29T17:44:20;98972.59;;;31.98;28.99
41573;BME280;27286;47.870;19.006;2022-07-29T17:46:46;98976.97;;;31.92;28.90
41573;BME280;27286;47.870;19.006;2022-07-29T17:49:11;98985.25;;;31.84;29.18
41573;BME280;27286;47.870;19.006;2022-07-29T17:51:37;99005.97;;;31.57;31.18
41573;BME280;27286;47.870;19.006;2022-07-29T17:54:02;99032.84;;;31.11;34.23
41573;BME280;27286;47.870;19.006;2022-07-29T17:56:28;99052.91;;;30.54;35.36
41573;BME280;27286;47.870;19.006;2022-07-29T17:58:53;99056.47;;;30.20;37.04
41573;BME280;27286;47.870;19.006;2022-07-29T18:01:19;99058.88;;;29.80;39.08
41573;BME280;27286;47.870;19.006;2022-07-29T18:03:44;99059.41;;;29.69;42.11
41573;BME280;27286;47.870;19.006;2022-07-29T18:06:11;99060.16;;;29.56;43.45
41573;BME280;27286;47.870;19.006;2022-07-29T18:08:36;99061.94;;;29.49;43.94
41573;BME280;27286;47.870;19.006;2022-07-29T18:11:03;99074.63;;;29.41;45.05
41573;BME280;27286;47.870;19.006;2022-07-29T18:13:29;99071.75;;;29.21;46.39
41573;BME280;27286;47.870;19.006;2022-07-29T18:15:54;99074.81;;;29.18;46.01
41573;BME280;27286;47.870;19.006;2022-07-29T18:18:19;99078.66;;;29.09;47.14
41573;BME280;27286;47.870;19.006;2022-07-29T18:20:45;99067.78;;;28.95;47.27
41573;BME280;27286;47.870;19.006;2022-07-29T18:23:11;99058.94;;;28.80;47.17
41573;BME280;27286;47.870;19.006;2022-07-29T18:25:37;99057.78;;;28.53;48.35
41573;BME280;27286;47.870;19.006;2022-07-29T18:28:04;99040.44;;;28.20;48.65
41573;BME280;27286;47.870;19.006;2022-07-29T18:30:30;99031.50;;;27.98;48.86
41573;BME280;27286;47.870;19.006;2022-07-29T18:32:58;99023.91;;;27.86;50.19
41573;BME280;27286;47.870;19.006;2022-07-29T18:35:23;99011.66;;;27.77;50.25
41573;BME280;27286;47.870;19.006;2022-07-29T18:37:49;99008.41;;;27.82;49.88
41573;BME280;27286;47.870;19.006;2022-07-29T18:40:18;99009.53;;;27.87;49.25
41573;BME280;27286;47.870;19.006;2022-07-29T18:42:45;99030.28;;;28.00;49.45
41573;BME280;27286;47.870;19.006;2022-07-29T18:45:11;99041.34;;;27.97;48.85
41573;BME280;27286;47.870;19.006;2022-07-29T18:47:36;99050.41;;;27.96;47.75
41573;BME280;27286;47.870;19.006;2022-07-29T18:50:03;99051.78;;;27.92;47.67
41573;BME280;27286;47.870;19.006;2022-07-29T18:52:29;99048.44;;;27.75;48.19
41573;BME280;27286;47.870;19.006;2022-07-29T18:54:54;99049.34;;;27.68;47.53
41573;BME280;27286;47.870;19.006;2022-07-29T18:57:20;99038.66;;;27.68;46.67
41573;BME280;27286;47.870;19.006;2022-07-29T18:59:45;99044.31;;;27.73;46.17
41573;BME280;27286;47.870;19.006;2022-07-29T19:02:11;99040.63;;;27.74;46.34
41573;BME280;27286;47.870;19.006;2022-07-29T19:04:36;99041.72;;;27.79;46.55
41573;BME280;27286;47.870;19.006;2022-07-29T19:07:01;99054.25;;;27.79;47.43
41573;BME280;27286;47.870;19.006;2022-07-29T19:09:28;99047.88;;;27.65;48.32
41573;BME280;27286;47.870;19.006;2022-07-29T19:11:54;99053.78;;;27.52;48.73
41573;BME280;27286;47.870;19.006;2022-07-29T19:14:19;99052.78;;;27.39;48.88
41573;BME280;27286;47.870;19.006;2022-07-29T19:16:45;99051.44;;;27.35;48.57
41573;BME280;27286;47.870;19.006;2022-07-29T19:19:10;99046.09;;;27.35;48.78
41573;BME280;27286;47.870;19.006;2022-07-29T19:21:36;99051.25;;;27.21;48.70
41573;BME280;27286;47.870;19.006;2022-07-29T19:24:01;99044.09;;;27.14;48.33
41573;BME280;27286;47.870;19.006;2022-07-29T19:26:29;99040.19;;;27.24;45.44
41573;BME280;27286;47.870;19.006;2022-07-29T19:28:54;99039.28;;;27.32;45.13
41573;BME280;27286;47.870;19.006;2022-07-29T19:31:19;99050.63;;;27.34;44.86
41573;BME280;27286;47.870;19.006;2022-07-29T19:33:45;99052.41;;;27.42;44.15
41573;BME280;27286;47.870;19.006;2022-07-29T19:36:10;99049.72;;;27.42;45.45
41573;BME280;27286;47.870;19.006;2022-07-29T19:38:36;99051.81;;;27.32;46.62
41573;BME280;27286;47.870;19.006;2022-07-29T19:41:03;99050.88;;;27.24;46.60
41573;BME280;27286;47.870;19.006;2022-07-29T19:43:30;99051.41;;;27.20;46.31
41573;BME280;27286;47.870;19.006;2022-07-29T19:45:56;99059.41;;;27.20;46.65
41573;BME280;27286;47.870;19.006;2022-07-29T19:48:21;99052.59;;;27.17;46.17
41573;BME280;27286;47.870;19.006;2022-07-29T19:50:46;99044.38;;;27.19;44.69
41573;BME280;27286;47.870;19.006;2022-07-29T19:53:12;99048.50;;;27.30;43.71
41573;BME280;27286;47.870;19.006;2022-07-29T19:55:37;99045.91;;;27.36;43.56
41573;BME280;27286;47.870;19.006;2022-07-29T19:58:03;99049.59;;;27.35;43.26
41573;BME280;27286;47.870;19.006;2022-07-29T20:00:30;99040.75;;;27.35;42.85
41573;BME280;27286;47.870;19.006;2022-07-29T20:02:55;99044.25;;;27.35;43.34
41573;BME280;27286;47.870;19.006;2022-07-29T20:05:23;99042.59;;;27.34;43.44
41573;BME280;27286;47.870;19.006;2022-07-29T20:07:50;99046.00;;;27.28;43.60
41573;BME280;27286;47.870;19.006;2022-07-29T20:10:16;99045.34;;;27.26;44.05
41573;BME280;27286;47.870;19.006;2022-07-29T20:12:41;99051.06;;;27.23;44.35
41573;BME280;27286;47.870;19.006;2022-07-29T20:15:08;99038.00;;;27.05;44.96
41573;BME280;27286;47.870;19.006;2022-07-29T20:17:35;99047.00;;;27.04;45.34
41573;BME280;27286;47.870;19.006;2022-07-29T20:20:00;99041.69;;;26.96;46.34
41573;BME280;27286;47.870;19.006;2022-07-29T20:22:28;99043.72;;;26.94;46.07
41573;BME280;27286;47.870;19.006;2022-07-29T20:24:53;99029.28;;;26.80;46.41
41573;BME280;27286;47.870;19.006;2022-07-29T20:27:19;99049.59;;;26.89;46.18
41573;BME280;27286;47.870;19.006;2022-07-29T20:29:45;99050.94;;;26.85;46.16
41573;BME280;27286;47.870;19.006;2022-07-29T20:32:10;99047.84;;;26.74;46.32
41573;BME280;27286;47.870;19.006;2022-07-29T20:34:38;99067.56;;;26.73;46.89
41573;BME280;27286;47.870;19.006;2022-07-29T20:37:05;99068.88;;;26.68;47.03
41573;BME280;27286;47.870;19.006;2022-07-29T20:39:36;99077.25;;;26.65;46.97
41573;BME280;27286;47.870;19.006;2022-07-29T20:42:02;99091.13;;;26.61;47.18
41573;BME280;27286;47.870;19.006;2022-07-29T20:44:27;99084.66;;;26.55;47.30
41573;BME280;27286;47.870;19.006;2022-07-29T20:46:53;99083.66;;;26.48;47.74
41573;BME280;27286;47.870;19.006;2022-07-29T20:49:18;99092.22;;;26.44;48.04
41573;BME280;27286;47.870;19.006;2022-07-29T20:51:43;99083.22;;;26.36;47.87
41573;BME280;27286;47.870;19.006;2022-07-29T20:54:09;99095.72;;;26.44;47.90
41573;BME280;27286;47.870;19.006;2022-07-29T20:56:34;99099.56;;;26.42;48.05
41573;BME280;27286;47.870;19.006;2022-07-29T20:59:00;99102.06;;;26.43;47.66
41573;BME280;27286;47.870;19.006;2022-07-29T21:01:25;99094.88;;;26.35;48.19
41573;BME280;27286;47.870;19.006;2022-07-29T21:03:51;99089.88;;;26.32;48.25
41573;BME280;27286;47.870;19.006;2022-07-29T21:06:16;99093.06;;;26.36;47.97
41573;BME280;27286;47.870;19.006;2022-07-29T21:08:42;99099.91;;;26.38;47.91
41573;BME280;27286;47.870;19.006;2022-07-29T21:11:07;99098.06;;;26.31;48.16
41573;BME280;27286;47.870;19.006;2022-07-29T21:13:33;99094.41;;;26.24;48.75
41573;BME280;27286;47.870;19.006;2022-07-29T21:16:04;99106.41;;;26.20;48.99
41573;BME280;27286;47.870;19.006;2022-07-29T21:18:37;99104.25;;;26.23;48.46
41573;BME280;27286;47.870;19.006;2022-07-29T21:21:05;99109.06;;;26.20;48.43
41573;BME280;27286;47.870;19.006;2022-07-29T21:23:30;99099.94;;;26.14;48.45
41573;BME280;27286;47.870;19.006;2022-07-29T21:25:56;99107.28;;;26.12;48.61
41573;BME280;27286;47.870;19.006;2022-07-29T21:28:21;99098.44;;;26.12;48.38
41573;BME280;27286;47.870;19.006;2022-07-29T21:31:14;99096.13;;;26.08;48.59
41573;BME280;27286;47.870;19.006;2022-07-29T21:33:42;99100.97;;;26.05;48.55
41573;BME280;27286;47.870;19.006;2022-07-29T21:36:08;99098.78;;;26.00;48.73
41573;BME280;27286;47.870;19.006;2022-07-29T21:38:34;99103.13;;;26.01;48.29
41573;BME280;27286;47.870;19.006;2022-07-29T21:41:00;99120.97;;;26.01;48.32
41573;BME280;27286;47.870;19.006;2022-07-29T21:43:26;99109.97;;;25.96;48.17
41573;BME280;27286;47.870;19.006;2022-07-29T21:45:53;99106.00;;;25.92;48.46
41573;BME280;27286;47.870;19.006;2022-07-29T21:48:19;99118.31;;;25.85;48.13
41573;BME280;27286;47.870;19.006;2022-07-29T21:50:45;99118.00;;;25.79;48.55
41573;BME280;27286;47.870;19.006;2022-07-29T21:53:12;99118.63;;;25.65;48.71
41573;BME280;27286;47.870;19.006;2022-07-29T21:55:38;99115.97;;;25.57;48.95
41573;BME280;27286;47.870;19.006;2022-07-29T21:58:04;99123.63;;;25.52;48.82
41573;BME280;27286;47.870;19.006;2022-07-29T22:00:30;99131.63;;;25.44;48.87
41573;BME280;27286;47.870;19.006;2022-07-29T22:02:58;99136.09;;;25.35;49.39
41573;BME280;27286;47.870;19.006;2022-07-29T22:05:24;99129.63;;;25.38;48.81
41573;BME280;27286;47.870;19.006;2022-07-29T22:07:50;99122.63;;;25.45;48.97
41573;BME280;27286;47.870;19.006;2022-07-29T22:10:16;99118.63;;;25.41;49.15
41573;BME280;27286;47.870;19.006;2022-07-29T22:12:42;99110.81;;;25.47;48.70
41573;BME280;27286;47.870;19.006;2022-07-29T22:15:08;99117.81;;;25.57;48.77
41573;BME280;27286;47.870;19.006;2022-07-29T22:17:34;99123.81;;;25.59;48.75
41573;BME280;27286;47.870;19.006;2022-07-29T22:19:59;99115.97;;;25.57;48.65
41573;BME280;27286;47.870;19.006;2022-07-29T22:22:25;99119.66;;;25.56;48.48
41573;BME280;27286;47.870;19.006;2022-07-29T22:24:51;99111.81;;;25.55;48.84
41573;BME280;27286;47.870;19.006;2022-07-29T22:27:16;99104.13;;;25.52;48.87
41573;BME280;27286;47.870;19.006;2022-07-29T22:29:41;99098.31;;;25.48;48.86
41573;BME280;27286;47.870;19.006;2022-07-29T22:32:07;99102.63;;;25.49;48.58
41573;BME280;27286;47.870;19.006;2022-07-29T22:34:33;99100.16;;;25.39;48.72
41573;BME280;27286;47.870;19.006;2022-07-29T22:36:59;99099.16;;;25.40;48.77
41573;BME280;27286;47.870;19.006;2022-07-29T22:39:24;99093.34;;;25.37;48.79
41573;BME280;27286;47.870;19.006;2022-07-29T22:41:50;99089.97;;;25.27;48.85
41573;BME280;27286;47.870;19.006;2022-07-29T22:44:15;99096.97;;;25.28;49.01
41573;BME280;27286;47.870;19.006;2022-07-29T22:46:41;99085.47;;;25.27;48.85
41573;BME280;27286;47.870;19.006;2022-07-29T22:49:07;99085.16;;;25.30;48.93
41573;BME280;27286;47.870;19.006;2022-07-29T22:51:32;99086.31;;;25.28;49.11
41573;BME280;27286;47.870;19.006;2022-07-29T22:53:57;99079.47;;;25.17;49.35
41573;BME280;27286;47.870;19.006;2022-07-29T22:56:23;99080.81;;;25.13;49.30
41573;BME280;27286;47.870;19.006;2022-07-29T22:58:48;99081.47;;;25.15;49.51
41573;BME280;27286;47.870;19.006;2022-07-29T23:01:15;99080.63;;;25.06;49.45
41573;BME280;27286;47.870;19.006;2022-07-29T23:03:41;99077.47;;;25.03;49.64
41573;BME280;27286;47.870;19.006;2022-07-29T23:06:06;99081.41;;;24.99;49.52
41573;BME280;27286;47.870;19.006;2022-07-29T23:08:32;99092.22;;;24.97;49.65
41573;BME280;27286;47.870;19.006;2022-07-29T23:10:57;99077.41;;;24.95;49.42
41573;BME280;27286;47.870;19.006;2022-07-29T23:13:23;99069.91;;;24.90;49.54
41573;BME280;27286;47.870;19.006;2022-07-29T23:15:48;99073.22;;;24.84;50.13
41573;BME280;27286;47.870;19.006;2022-07-29T23:18:14;99066.88;;;24.77;49.91
41573;BME280;27286;47.870;19.006;2022-07-29T23:20:41;99068.22;;;24.81;49.88
41573;BME280;27286;47.870;19.006;2022-07-29T23:23:06;99071.88;;;24.80;49.83
41573;BME280;27286;47.870;19.006;2022-07-29T23:25:32;99080.53;;;24.82;50.02
41573;BME280;27286;47.870;19.006;2022-07-29T23:27:57;99073.38;;;24.74;50.38
41573;BME280;27286;47.870;19.006;2022-07-29T23:30:23;99058.19;;;24.67;50.25
41573;BME280;27286;47.870;19.006;2022-07-29T23:32:48;99060.84;;;24.67;50.58
41573;BME280;27286;47.870;19.006;2022-07-29T23:35:14;99076.19;;;24.73;50.60
41573;BME280;27286;47.870;19.006;2022-07-29T23:37:39;99062.91;;;24.73;50.55
41573;BME280;27286;47.870;19.006;2022-07-29T23:40:05;99053.91;;;24.74;50.45
41573;BME280;27286;47.870;19.006;2022-07-29T23:42:31;99056.75;;;24.72;50.93
41573;BME280;27286;47.870;19.006;2022-07-29T23:44:56;99056.38;;;24.67;51.36
41573;BME280;27286;47.870;19.006;2022-07-29T23:47:22;99041.72;;;24.63;51.07
41573;BME280;27286;47.870;19.006;2022-07-29T23:49:47;99054.72;;;24.66;51.38
41573;BME280;27286;47.870;19.006;2022-07-29T23:52:14;99038.72;;;24.58;51.52
41573;BME280;27286;47.870;19.006;2022-07-29T23:54:40;99045.88;;;24.66;51.54
41573;BME280;27286;47.870;19.006;2022-07-29T23:57:06;99043.56;;;24.63;51.78
41573;BME280;27286;47.870;19.006;2022-07-29T23:59:31;99034.72;;;24.54;52.04
